Time;durP1;ratioP1;P1;durP2;ratioP2;P2;SDS_P1;SDS_P2;PMS_P1;PMS_P2;Temp;Humidity;BMP_temperature;BMP_pressure;BME280_temperature;BME280_humidity;BME280_pressure;Samples;Min_cycle;Max_cycle;Signal;HPM_P1;HPM_P2
2021/10/22 00:00:39;;;;;;;;;;;;;;;-142.75;88.64;77645.22;5033135;28;19920;-70
2021/10/22 00:03:04;;;;;;;;;;;;;;;-142.75;86.44;77633.41;5031659;28;19913;-69
2021/10/22 00:05:32;;;;;;;;;;;;;;;-142.75;85.62;77625.53;5032686;28;19919;-69
2021/10/22 00:07:58;;;;;;;;;;;;;;;-142.75;85.82;77607.81;5033301;28;20367;-70
2021/10/22 00:10:23;;;;;;;;;;;;;;;-142.75;85.30;77621.59;5033062;28;19956;-69
2021/10/22 00:12:48;;;;;;;;;;;;;;;-142.75;84.89;77633.41;5031480;28;19948;-69
2021/10/22 00:15:13;;;;;;;;;;;;;;;-142.75;85.32;77621.59;5032238;28;19912;-69
2021/10/22 00:17:38;;;;;;;;;;;;;;;-142.75;84.08;77619.63;5032592;28;19913;-70
2021/10/22 00:20:05;;;;;;;;;;;;;;;-142.75;83.41;77617.66;5031574;28;19917;-69
2021/10/22 00:22:30;;;;;;;;;;;;;;;-142.75;83.36;77605.84;5032285;28;19912;-71
2021/10/22 00:24:56;;;;;;;;;;;;;;;-142.75;84.34;77596.00;5031687;28;19971;-69
2021/10/22 00:27:21;;;;;;;;;;;;;;;-142.75;83.80;77605.84;5032663;28;19990;-70
2021/10/22 00:29:46;;;;;;;;;;;;;;;-142.75;82.33;77613.72;5031270;28;19920;-68
2021/10/22 00:32:11;;;;;;;;;;;;;;;-142.75;82.05;77617.66;5031183;28;19913;-70
2021/10/22 00:34:36;;;;;;;;;;;;;;;-142.75;81.56;77609.78;5030617;28;20094;-69
2021/10/22 00:37:03;;;;;;;;;;;;;;;-142.75;81.75;77613.72;5032218;28;20371;-70
2021/10/22 00:39:28;;;;;;;;;;;;;;;-142.75;80.61;77601.91;5032340;28;20287;-69
2021/10/22 00:41:54;;;;;;;;;;;;;;;-142.75;81.80;77613.72;5032410;28;19921;-69
2021/10/22 00:44:19;;;;;;;;;;;;;;;-142.75;82.36;77605.84;5030640;28;19913;-69
2021/10/22 00:46:44;;;;;;;;;;;;;;;-142.75;81.30;77607.81;5030845;28;20055;-69
2021/10/22 00:49:10;;;;;;;;;;;;;;;-142.75;80.61;77592.06;5032268;28;20058;-69
2021/10/22 00:51:36;;;;;;;;;;;;;;;-142.75;79.27;77586.16;5030935;28;19912;-69
2021/10/22 00:54:09;;;;;;;;;;;;;;;-142.75;79.78;77574.34;5030373;28;19916;-69
2021/10/22 00:56:34;;;;;;;;;;;;;;;-142.75;79.34;77574.34;5032413;28;19913;-69
2021/10/22 00:59:01;;;;;;;;;;;;;;;-142.75;79.14;77566.47;5031830;28;20301;-69
2021/10/22 01:01:27;;;;;;;;;;;;;;;-142.75;79.43;77562.53;5030820;28;20293;-69
2021/10/22 01:03:52;;;;;;;;;;;;;;;-142.75;79.01;77566.47;5031028;28;20016;-71
2021/10/22 01:06:17;;;;;;;;;;;;;;;-142.75;78.79;77558.59;5031748;28;19917;-68
2021/10/22 01:08:43;;;;;;;;;;;;;;;-142.75;79.20;77570.41;5031909;28;19959;-70
2021/10/22 01:11:09;;;;;;;;;;;;;;;-142.75;78.41;77562.53;5031591;28;20314;-72
2021/10/22 01:13:34;;;;;;;;;;;;;;;-142.75;78.28;77605.84;5031601;28;19913;-68
2021/10/22 01:15:59;;;;;;;;;;;;;;;-142.75;78.68;77590.09;5031540;28;19913;-70
2021/10/22 01:18:25;;;;;;;;;;;;;;;-142.75;78.41;77597.97;5030337;28;19940;-70
2021/10/22 01:21:11;;;;;;;;;;;;;;;-142.75;78.54;77599.94;5031329;28;20378;-69
2021/10/22 01:23:36;;;;;;;;;;;;;;;-142.75;78.26;77586.16;5031408;28;20465;-72
2021/10/22 01:26:01;;;;;;;;;;;;;;;-142.75;78.95;77596.00;5031754;28;19921;-69
2021/10/22 01:28:27;;;;;;;;;;;;;;;-142.75;79.44;77586.16;5031640;28;20011;-69
2021/10/22 01:30:53;;;;;;;;;;;;;;;-142.75;79.03;77597.97;5030260;28;19917;-69
2021/10/22 01:33:18;;;;;;;;;;;;;;;-142.75;78.81;77584.19;5031161;28;19912;-69
2021/10/22 01:35:44;;;;;;;;;;;;;;;-142.75;78.32;77566.47;5031027;28;19913;-70
2021/10/22 01:38:10;;;;;;;;;;;;;;;-142.75;78.76;77564.50;5031470;28;19925;-73
2021/10/22 01:40:36;;;;;;;;;;;;;;;-142.75;78.87;77556.63;5031496;28;19913;-71
2021/10/22 01:43:01;;;;;;;;;;;;;;;-142.75;79.38;77562.53;5031386;28;19999;-70
2021/10/22 01:45:26;;;;;;;;;;;;;;;-142.75;79.62;77540.88;5028199;28;19919;-72
2021/10/22 01:47:51;;;;;;;;;;;;;;;-142.75;79.64;77542.84;5031461;28;20039;-69
2021/10/22 01:50:16;;;;;;;;;;;;;;;-142.75;79.35;77548.75;5031225;28;20302;-72
2021/10/22 01:52:42;;;;;;;;;;;;;;;-142.75;80.03;77546.78;5031274;28;19928;-69
2021/10/22 01:55:07;;;;;;;;;;;;;;;-142.75;80.69;77550.72;5031099;28;19956;-72
2021/10/22 01:57:32;;;;;;;;;;;;;;;-142.75;80.87;77546.78;5030994;28;20365;-69
2021/10/22 01:59:57;;;;;;;;;;;;;;;-142.75;80.75;77542.84;5029616;28;19928;-71
2021/10/22 02:02:23;;;;;;;;;;;;;;;-142.75;80.48;77540.88;5029757;28;19913;-68
2021/10/22 02:04:48;;;;;;;;;;;;;;;-142.75;80.21;77534.97;5030722;28;19920;-69
2021/10/22 02:07:13;;;;;;;;;;;;;;;-142.75;80.63;77534.97;5029784;28;20383;-69
2021/10/22 02:09:38;;;;;;;;;;;;;;;-142.75;80.50;77527.09;5030905;28;19912;-69
2021/10/22 02:12:04;;;;;;;;;;;;;;;-142.75;80.91;77515.28;5030945;28;19913;-68
2021/10/22 02:14:29;;;;;;;;;;;;;;;-142.75;80.71;77493.63;5030665;28;19975;-69
2021/10/22 02:16:55;;;;;;;;;;;;;;;-142.75;81.13;77489.69;5033930;28;19920;-69
2021/10/22 02:19:20;;;;;;;;;;;;;;;-142.75;81.99;77479.84;5033622;28;19917;-69
2021/10/22 02:21:45;;;;;;;;;;;;;;;-142.75;82.14;77481.81;5035072;28;19925;-68
2021/10/22 02:24:10;;;;;;;;;;;;;;;-142.75;83.63;77495.59;5034686;28;20394;-69
2021/10/22 02:26:35;;;;;;;;;;;;;;;-142.75;83.63;77471.97;5033810;28;19913;-69
2021/10/22 02:29:01;;;;;;;;;;;;;;;-142.75;85.12;77481.81;5033553;28;20333;-69
2021/10/22 02:31:26;;;;;;;;;;;;;;;-142.75;85.44;77473.94;5033449;28;19945;-69
2021/10/22 02:33:51;;;;;;;;;;;;;;;-142.75;86.32;77475.91;5033301;28;19971;-69
2021/10/22 02:36:17;;;;;;;;;;;;;;;-142.75;86.80;77475.91;5034808;28;19948;-69
2021/10/22 02:38:43;;;;;;;;;;;;;;;-142.75;87.27;77468.03;5034627;28;19971;-69
2021/10/22 02:41:08;;;;;;;;;;;;;;;-142.75;87.58;77471.97;5034406;28;20367;-69
2021/10/22 02:43:34;;;;;;;;;;;;;;;-142.75;88.04;77468.03;5034428;28;19919;-69
2021/10/22 02:45:59;;;;;;;;;;;;;;;-142.75;88.68;77460.13;5034155;28;19913;-68
2021/10/22 02:48:24;;;;;;;;;;;;;;;-142.75;88.75;77458.16;5034695;28;19913;-68
2021/10/22 02:50:49;;;;;;;;;;;;;;;-142.75;88.96;77454.25;5034594;28;19920;-71
2021/10/22 02:53:15;;;;;;;;;;;;;;;-142.75;88.91;77456.22;5034228;28;20386;-69
2021/10/22 02:55:40;;;;;;;;;;;;;;;-142.75;89.05;77452.25;5033125;28;20008;-68
2021/10/22 02:58:06;;;;;;;;;;;;;;;-142.75;88.67;77444.38;5034286;28;20007;-70
2021/10/22 03:00:31;;;;;;;;;;;;;;;-142.75;89.38;77438.47;5034598;28;20308;-68
2021/10/22 03:02:56;;;;;;;;;;;;;;;-142.75;90.07;77442.41;5033053;28;19912;-69
2021/10/22 03:05:21;;;;;;;;;;;;;;;-142.75;90.98;77430.59;5032690;28;20309;-69
2021/10/22 03:07:46;;;;;;;;;;;;;;;-142.75;90.77;77424.69;5034126;28;20355;-69
2021/10/22 03:10:12;;;;;;;;;;;;;;;-142.75;91.36;77412.88;5034190;28;19917;-68
2021/10/22 03:12:37;;;;;;;;;;;;;;;-142.75;91.57;77397.13;5034065;28;19970;-71
2021/10/22 03:15:03;;;;;;;;;;;;;;;-142.75;92.23;77391.22;5033651;28;19913;-70
2021/10/22 03:17:28;;;;;;;;;;;;;;;-142.75;92.68;77379.41;5034055;28;20383;-68
2021/10/22 03:19:53;;;;;;;;;;;;;;;-142.75;93.36;77373.50;5034011;28;19963;-70
2021/10/22 03:22:19;;;;;;;;;;;;;;;-142.75;93.37;77381.38;5032747;28;19944;-68
2021/10/22 03:24:44;;;;;;;;;;;;;;;-142.75;92.72;77377.44;5033727;28;20389;-69
2021/10/22 03:27:11;;;;;;;;;;;;;;;-142.75;92.17;77361.69;5033044;28;19920;-70
2021/10/22 03:29:37;;;;;;;;;;;;;;;-142.75;92.03;77359.72;5032634;28;19913;-69
2021/10/22 03:32:02;;;;;;;;;;;;;;;-142.75;91.75;77361.69;5032381;28;20318;-69
2021/10/22 03:34:27;;;;;;;;;;;;;;;-142.75;91.99;77361.69;5033226;28;19924;-68
2021/10/22 03:36:53;;;;;;;;;;;;;;;-142.75;93.10;77357.75;5033665;28;19920;-68
2021/10/22 03:39:18;;;;;;;;;;;;;;;-142.75;94.20;77357.75;5033658;28;19925;-69
2021/10/22 03:41:43;;;;;;;;;;;;;;;-142.75;96.74;77342.00;5033143;28;20000;-67
2021/10/22 03:44:08;;;;;;;;;;;;;;;-142.75;97.68;77332.16;5031939;28;19913;-69
2021/10/22 03:46:33;;;;;;;;;;;;;;;-142.75;99.70;77342.00;5033379;28;19913;-69
2021/10/22 03:48:58;;;;;;;;;;;;;;;-142.75;99.90;77345.94;5033429;28;19959;-69
2021/10/22 03:51:24;;;;;;;;;;;;;;;-142.75;100.00;77345.94;5031960;28;19913;-69
2021/10/22 03:53:49;;;;;;;;;;;;;;;-142.75;99.96;77357.75;5032936;28;19960;-68
2021/10/22 03:56:14;;;;;;;;;;;;;;;-142.75;99.02;77349.88;5034562;28;19960;-68
2021/10/22 03:58:39;;;;;;;;;;;;;;;-142.75;99.08;77334.13;5032603;28;20369;-67
2021/10/22 04:01:04;;;;;;;;;;;;;;;-142.75;97.40;77330.19;5032640;28;19967;-68
2021/10/22 04:03:30;;;;;;;;;;;;;;;-142.75;97.01;77320.34;5031205;28;19917;-67
2021/10/22 04:05:55;;;;;;;;;;;;;;;-142.75;96.61;77324.28;5031128;28;20521;-68
2021/10/22 04:08:21;;;;;;;;;;;;;;;-142.75;95.64;77330.19;5032599;28;19955;-68
2021/10/22 04:10:46;;;;;;;;;;;;;;;-142.75;96.50;77328.22;5032366;28;19921;-66
2021/10/22 04:13:12;;;;;;;;;;;;;;;-142.75;100.00;77343.97;5031937;28;19956;-66
2021/10/22 04:15:40;;;;;;;;;;;;;;;-142.75;100.00;77365.63;5030920;28;20296;-68
2021/10/22 04:18:05;;;;;;;;;;;;;;;-142.75;100.00;77385.31;5030974;28;19920;-67
2021/10/22 04:20:30;;;;;;;;;;;;;;;-142.75;100.00;77375.47;5031242;28;19913;-68
2021/10/22 04:22:58;;;;;;;;;;;;;;;-142.75;100.00;77389.25;5032420;28;19932;-68
2021/10/22 04:25:23;;;;;;;;;;;;;;;-142.75;100.00;77393.19;5033217;28;19913;-68
2021/10/22 04:27:48;;;;;;;;;;;;;;;-142.75;100.00;77403.03;5032245;28;20642;-68
2021/10/22 04:30:13;;;;;;;;;;;;;;;-142.75;100.00;77420.75;5032015;28;19913;-68
2021/10/22 04:32:39;;;;;;;;;;;;;;;-142.75;100.00;77414.84;5030650;28;19917;-67
2021/10/22 04:35:04;;;;;;;;;;;;;;;-142.75;100.00;77408.94;5031705;28;20329;-68
2021/10/22 04:37:33;;;;;;;;;;;;;;;-142.75;100.00;77405.00;5030714;28;19913;-67
2021/10/22 04:42:46;;;;;;;;;;;;;;;-142.75;100.00;77401.06;5032196;28;19968;-67
2021/10/22 04:45:11;;;;;;;;;;;;;;;-142.75;100.00;77393.19;5031316;28;19913;-68
2021/10/22 04:47:40;;;;;;;;;;;;;;;-142.75;99.11;77377.44;5030315;28;19967;-68
2021/10/22 04:50:07;;;;;;;;;;;;;;;-142.75;96.40;77373.50;5031819;28;19913;-68
2021/10/22 04:52:33;;;;;;;;;;;;;;;-142.75;93.64;77367.59;5031769;28;19917;-68
2021/10/22 04:54:58;;;;;;;;;;;;;;;-142.75;92.41;77363.66;5031511;28;19927;-68
2021/10/22 04:57:23;;;;;;;;;;;;;;;-142.75;92.50;77365.63;5031585;28;19917;-68
2021/10/22 04:59:48;;;;;;;;;;;;;;;-142.75;91.05;77353.81;5031544;28;19917;-68
2021/10/22 05:02:14;;;;;;;;;;;;;;;-142.75;90.45;77347.91;5030179;28;20325;-69
2021/10/22 05:04:39;;;;;;;;;;;;;;;-142.75;90.58;77342.00;5031163;28;19913;-68
2021/10/22 05:07:04;;;;;;;;;;;;;;;-142.75;90.15;77338.06;5031282;28;19913;-68
2021/10/22 05:09:29;;;;;;;;;;;;;;;-142.75;91.07;77338.06;5029996;28;19913;-68
2021/10/22 05:11:54;;;;;;;;;;;;;;;-142.75;91.18;77328.22;5031120;28;19936;-68
2021/10/22 05:14:20;;;;;;;;;;;;;;;-142.75;91.66;77320.34;5030720;28;19974;-69
2021/10/22 05:16:45;;;;;;;;;;;;;;;-142.75;92.61;77306.56;5031272;28;20264;-69
2021/10/22 05:19:10;;;;;;;;;;;;;;;-142.75;92.86;77310.50;5031100;28;20306;-68
2021/10/22 05:21:35;;;;;;;;;;;;;;;-142.75;92.30;77312.47;5029815;28;20293;-68
2021/10/22 05:24:00;;;;;;;;;;;;;;;-142.75;92.29;77316.41;5029480;28;19913;-69
2021/10/22 05:26:25;;;;;;;;;;;;;;;-142.75;93.10;77312.47;5030368;28;19956;-69
2021/10/22 05:28:51;;;;;;;;;;;;;;;-142.75;94.08;77308.53;5030664;28;19920;-68
2021/10/22 05:31:16;;;;;;;;;;;;;;;-142.75;94.63;77306.56;5031045;28;19913;-68
2021/10/22 05:33:41;;;;;;;;;;;;;;;-142.75;95.25;77300.66;5030599;28;20015;-68
2021/10/22 05:36:06;;;;;;;;;;;;;;;-142.75;97.47;77300.66;5030228;28;20004;-67
2021/10/22 05:38:31;;;;;;;;;;;;;;;-142.75;98.47;77298.69;5030232;28;19921;-69
2021/10/22 05:40:57;;;;;;;;;;;;;;;-142.75;99.65;77306.56;5030180;28;19987;-68
2021/10/22 05:43:22;;;;;;;;;;;;;;;-142.75;100.00;77316.41;5030137;28;19928;-68
2021/10/22 05:45:47;;;;;;;;;;;;;;;-142.75;100.00;77310.50;5029612;28;19916;-68
2021/10/22 05:48:12;;;;;;;;;;;;;;;-142.75;100.00;77310.50;5030100;28;19956;-68
2021/10/22 05:50:39;;;;;;;;;;;;;;;-142.75;99.63;77314.44;5029826;28;20361;-67
2021/10/22 05:53:04;;;;;;;;;;;;;;;-142.75;98.79;77310.50;5028563;28;19928;-68
2021/10/22 05:55:30;;;;;;;;;;;;;;;-142.75;98.15;77314.44;5029960;28;20627;-68
2021/10/22 05:57:56;;;;;;;;;;;;;;;-142.75;97.25;77316.41;5028633;28;19966;-69
2021/10/22 06:00:21;;;;;;;;;;;;;;;-142.75;94.50;77302.63;5028780;28;19913;-69
2021/10/22 06:02:46;;;;;;;;;;;;;;;-142.75;91.30;77300.66;5030196;28;19913;-68
2021/10/22 06:05:11;;;;;;;;;;;;;;;-142.75;88.96;77296.72;5030134;28;19920;-68
2021/10/22 06:07:37;;;;;;;;;;;;;;;-142.75;86.31;77284.91;5029932;28;20461;-68
2021/10/22 06:10:03;;;;;;;;;;;;;;;-142.75;84.71;77273.09;5031232;28;19960;-68
2021/10/22 06:12:29;;;;;;;;;;;;;;;-142.75;84.34;77275.06;5031092;28;20283;-69
2021/10/22 06:14:54;;;;;;;;;;;;;;;-142.75;84.55;77280.97;5030677;28;19920;-69
2021/10/22 06:17:19;;;;;;;;;;;;;;;-142.75;84.67;77275.06;5029898;28;19913;-69
2021/10/22 06:19:47;;;;;;;;;;;;;;;-142.75;84.98;77284.91;5030879;28;19916;-69
2021/10/22 06:24:56;;;;;;;;;;;;;;;-142.75;81.86;77290.81;5030376;28;20059;-69
2021/10/22 06:27:21;;;;;;;;;;;;;;;-142.75;80.73;77282.94;5030793;28;20422;-69
2021/10/22 06:29:46;;;;;;;;;;;;;;;-142.75;81.32;77282.94;5030999;28;19932;-70
2021/10/22 06:32:11;;;;;;;;;;;;;;;-142.75;81.66;77296.72;5030988;28;19913;-68
2021/10/22 06:34:36;;;;;;;;;;;;;;;-142.75;81.64;77290.81;5029285;28;19935;-69
2021/10/22 06:37:02;;;;;;;;;;;;;;;-142.75;81.87;77288.84;5030784;28;19920;-70
2021/10/22 06:39:27;;;;;;;;;;;;;;;-142.75;82.43;77280.97;5029511;28;19929;-69
2021/10/22 06:41:53;;;;;;;;;;;;;;;-142.75;83.28;77294.75;5030702;28;20007;-69
2021/10/22 06:44:18;;;;;;;;;;;;;;;-142.75;83.68;77296.72;5029797;28;19917;-68
2021/10/22 06:46:43;;;;;;;;;;;;;;;-142.75;83.71;77279.00;5028592;28;19921;-68
2021/10/22 06:49:09;;;;;;;;;;;;;;;-142.75;83.59;77282.94;5029938;28;19913;-68
2021/10/22 06:51:34;;;;;;;;;;;;;;;-142.75;83.12;77280.97;5029738;28;19913;-68
2021/10/22 06:54:00;;;;;;;;;;;;;;;-142.75;83.33;77273.09;5029275;28;19939;-68
2021/10/22 06:56:25;;;;;;;;;;;;;;;-142.75;83.53;77265.22;5029923;28;19913;-68
2021/10/22 06:58:50;;;;;;;;;;;;;;;-142.75;84.01;77282.94;5029603;28;19949;-68
2021/10/22 07:01:15;;;;;;;;;;;;;;;-142.75;83.26;77279.00;5029757;28;19956;-68
2021/10/22 07:03:44;;;;;;;;;;;;;;;-142.75;82.86;77290.81;5033246;28;19921;-68
2021/10/22 07:08:54;;;;;;;;;;;;;;;-142.75;82.09;77279.00;5033716;28;20014;-68
2021/10/22 07:11:19;;;;;;;;;;;;;;;-142.75;81.70;77282.94;5033120;28;19917;-68
2021/10/22 07:13:50;;;;;;;;;;;;;;;-142.75;81.91;77265.22;5033129;28;20300;-67
2021/10/22 07:16:16;;;;;;;;;;;;;;;-142.75;82.44;77273.09;5033183;28;19912;-68
2021/10/22 07:18:41;;;;;;;;;;;;;;;-142.75;81.41;77284.91;5031658;28;19924;-68
2021/10/22 07:21:06;;;;;;;;;;;;;;;-142.75;79.99;77282.94;5033220;28;19920;-68
2021/10/22 07:23:34;;;;;;;;;;;;;;;-142.75;80.14;77282.94;5032994;28;19916;-68
2021/10/22 07:25:59;;;;;;;;;;;;;;;-142.75;79.20;77267.19;5031535;28;19920;-69
2021/10/22 07:28:25;;;;;;;;;;;;;;;-142.75;78.57;77271.13;5031792;28;20398;-67
2021/10/22 07:30:52;;;;;;;;;;;;;;;-142.75;78.29;77279.00;5032747;28;20401;-67
2021/10/22 07:33:17;;;;;;;;;;;;;;;-142.75;78.26;77273.09;5033097;28;20302;-67
2021/10/22 07:35:42;;;;;;;;;;;;;;;-142.75;79.08;77277.03;5032508;28;19919;-67
2021/10/22 07:38:11;;;;;;;;;;;;;;;-142.75;78.99;77286.88;5031405;28;19923;-67
2021/10/22 07:40:38;;;;;;;;;;;;;;;-142.75;78.39;77275.06;5031625;28;19920;-67
2021/10/22 07:43:03;;;;;;;;;;;;;;;-142.75;79.51;77279.00;5032727;28;19960;-67
2021/10/22 07:45:28;;;;;;;;;;;;;;;-142.75;80.72;77282.94;5032078;28;19924;-69
2021/10/22 07:47:54;;;;;;;;;;;;;;;-142.75;80.96;77290.81;5030730;28;20363;-68
2021/10/22 07:50:19;;;;;;;;;;;;;;;-142.75;80.72;77284.91;5031128;28;19940;-68
2021/10/22 07:52:44;;;;;;;;;;;;;;;-142.75;81.54;77286.88;5032396;28;19999;-67
2021/10/22 07:55:09;;;;;;;;;;;;;;;-142.75;80.54;77286.88;5032136;28;19959;-68
2021/10/22 07:57:35;;;;;;;;;;;;;;;-142.75;81.44;77282.94;5031013;28;19917;-67
2021/10/22 08:00:00;;;;;;;;;;;;;;;-142.75;81.33;77279.00;5030937;28;19923;-68
2021/10/22 08:02:26;;;;;;;;;;;;;;;-142.75;80.93;77249.47;5032047;28;19920;-68
2021/10/22 08:04:51;;;;;;;;;;;;;;;-142.75;80.21;77227.81;5030455;28;19920;-68
2021/10/22 08:07:19;;;;;;;;;;;;;;;-142.75;79.17;77200.25;5032359;28;20387;-67
2021/10/22 08:09:45;;;;;;;;;;;;;;;-142.75;78.46;77200.25;5031080;28;20409;-67
2021/10/22 08:12:11;;;;;;;;;;;;;;;-142.75;78.77;77206.16;5032183;28;20461;-68
2021/10/22 08:14:37;;;;;;;;;;;;;;;-142.75;78.56;77217.97;5030415;28;20551;-68
2021/10/22 08:17:02;;;;;;;;;;;;;;;-142.75;78.95;77214.03;5032044;28;19921;-67
2021/10/22 08:19:28;;;;;;;;;;;;;;;-142.75;78.80;77216.00;5031944;28;20371;-67
2021/10/22 08:22:25;;;;;;;;;;;;;;;-142.75;79.72;77231.75;5032167;28;19919;-67
2021/10/22 08:24:41;;;;;;;;;;;;;;;-142.75;80.27;77223.88;5031512;28;20012;-67
2021/10/22 08:27:07;;;;;;;;;;;;;;;-142.75;79.68;77206.16;5030690;28;20012;-68
2021/10/22 08:29:33;;;;;;;;;;;;;;;-142.75;79.35;77200.25;5031671;28;19916;-68
2021/10/22 08:31:58;;;;;;;;;;;;;;;-142.75;79.84;77196.31;5030512;28;19970;-68
2021/10/22 08:34:24;;;;;;;;;;;;;;;-142.75;79.68;77176.63;5030112;28;20378;-68
2021/10/22 08:36:49;;;;;;;;;;;;;;;-142.75;78.59;77180.56;5030417;28;19913;-68
2021/10/22 08:39:14;;;;;;;;;;;;;;;-142.75;77.53;77176.63;5031521;28;19924;-67
2021/10/22 08:41:39;;;;;;;;;;;;;;;-142.75;77.63;77186.47;5030413;28;19913;-66
2021/10/22 08:44:05;;;;;;;;;;;;;;;-142.75;77.67;77172.69;5030990;28;19967;-67
2021/10/22 08:46:33;;;;;;;;;;;;;;;-142.75;78.56;77186.47;5030989;28;19912;-67
2021/10/22 08:48:59;;;;;;;;;;;;;;;-142.75;78.38;77153.00;5031330;28;20937;-68
2021/10/22 08:51:25;;;;;;;;;;;;;;;-142.75;78.03;77186.47;5031445;28;19913;-68
2021/10/22 08:53:50;;;;;;;;;;;;;;;-142.75;78.82;77188.44;5030952;28;19920;-67
2021/10/22 08:56:16;;;;;;;;;;;;;;;-142.75;79.97;77190.41;5030003;28;20363;-68
2021/10/22 08:58:42;;;;;;;;;;;;;;;-142.75;80.27;77196.31;5030957;28;19971;-67
2021/10/22 09:01:07;;;;;;;;;;;;;;;-142.75;80.36;77192.38;5031442;28;19920;-67
2021/10/22 09:03:39;;;;;;;;;;;;;;;-142.75;80.94;77184.50;5031004;28;20357;-68
2021/10/22 09:06:09;;;;;;;;;;;;;;;-142.75;81.32;77196.31;5029463;28;20433;-68
2021/10/22 09:08:38;;;;;;;;;;;;;;;-142.75;81.63;77188.44;5031217;28;20019;-68
2021/10/22 09:11:05;;;;;;;;;;;;;;;-142.75;81.72;77184.50;5031254;28;19928;-68
2021/10/22 09:13:31;;;;;;;;;;;;;;;-142.75;82.58;77196.31;5029356;28;20271;-67
2021/10/22 09:15:58;;;;;;;;;;;;;;;-142.75;86.15;77216.00;5030836;28;19924;-68
2021/10/22 09:18:25;;;;;;;;;;;;;;;-142.75;89.83;77216.00;5031016;28;19917;-67
2021/10/22 09:20:58;;;;;;;;;;;;;;;-142.75;89.60;77235.69;5030787;28;19974;-68
2021/10/22 09:23:28;;;;;;;;;;;;;;;-142.75;90.96;77227.81;5030921;28;19955;-68
2021/10/22 09:26:12;;;;;;;;;;;;;;;-142.75;90.35;77216.00;5030453;28;19921;-68
2021/10/22 09:28:37;;;;;;;;;;;;;;;-142.75;89.66;77202.22;5030175;28;19967;-66
2021/10/22 09:31:07;;;;;;;;;;;;;;;-142.75;87.70;77188.44;5031420;28;20758;-67
2021/10/22 09:33:32;;;;;;;;;;;;;;;-142.75;87.52;77196.31;5030864;28;19968;-67
2021/10/22 09:35:58;;;;;;;;;;;;;;;-142.75;87.49;77208.13;5029236;28;19944;-67
2021/10/22 09:38:24;;;;;;;;;;;;;;;-142.75;87.86;77186.47;5030404;28;19917;-67
2021/10/22 09:40:54;;;;;;;;;;;;;;;-142.75;86.50;77141.19;5029020;28;19931;-67
2021/10/22 09:43:20;;;;;;;;;;;;;;;-142.75;85.41;77153.00;5030309;28;19912;-67
2021/10/22 09:45:50;;;;;;;;;;;;;;;-142.75;84.33;77145.13;5030382;28;19913;-67
2021/10/22 09:48:26;;;;;;;;;;;;;;;-142.75;83.78;77164.81;5030091;28;19913;-68
2021/10/22 09:50:52;;;;;;;;;;;;;;;-142.75;84.05;77172.69;5030377;28;19913;-67
2021/10/22 09:53:22;;;;;;;;;;;;;;;-142.75;83.51;77166.78;5030348;28;19924;-67
2021/10/22 09:55:59;;;;;;;;;;;;;;;-142.75;84.83;77176.63;5030152;28;19913;-67
2021/10/22 09:58:24;;;;;;;;;;;;;;;-142.75;84.87;77186.47;5030212;28;19921;-68
2021/10/22 10:01:04;;;;;;;;;;;;;;;-142.75;85.20;77174.66;5028930;28;19913;-67
2021/10/22 10:03:29;;;;;;;;;;;;;;;-142.75;85.08;77168.75;5030454;28;19944;-66
2021/10/22 10:05:55;;;;;;;;;;;;;;;-142.75;83.67;77125.44;5030066;28;20394;-67
2021/10/22 10:08:20;;;;;;;;;;;;;;;-142.75;81.35;77038.81;5030273;28;19966;-67
2021/10/22 10:10:45;;;;;;;;;;;;;;;-142.75;77.30;76987.63;5030363;28;20363;-67
2021/10/22 10:13:10;;;;;;;;;;;;;;;-142.75;75.15;76934.47;5029011;28;19944;-67
2021/10/22 10:15:38;;;;;;;;;;;;;;;-142.75;74.11;76883.28;5028891;28;19917;-66
2021/10/22 10:18:07;;;;;;;;;;;;;;;-142.75;71.63;76794.69;5029607;28;19913;-67
2021/10/22 10:20:32;;;;;;;;;;;;;;;-142.75;70.33;76763.22;5030267;28;20390;-69
2021/10/22 10:23:01;;;;;;;;;;;;;;;-142.75;69.81;76761.25;5028785;28;19924;-68
2021/10/22 10:25:27;;;;;;;;;;;;;;;-142.75;67.92;76692.34;5028401;28;20383;-68
2021/10/22 10:27:53;;;;;;;;;;;;;;;-142.75;65.99;76678.56;5029809;28;19919;-68
2021/10/22 10:30:29;;;;;;;;;;;;;;;-142.75;65.63;76649.03;5030060;28;20368;-68
2021/10/22 10:32:55;;;;;;;;;;;;;;;-142.75;68.09;76773.06;5029954;28;19917;-68
2021/10/22 10:35:20;;;;;;;;;;;;;;;-142.75;70.12;76881.31;5028357;28;20000;-67
2021/10/22 10:37:54;;;;;;;;;;;;;;;-142.75;72.57;76936.44;5032605;28;20003;-68
2021/10/22 10:40:21;;;;;;;;;;;;;;;-142.75;74.99;76964.00;5032421;28;19920;-67
2021/10/22 10:42:56;;;;;;;;;;;;;;;-142.75;75.26;76956.13;5032567;28;20298;-69
2021/10/22 10:45:23;;;;;;;;;;;;;;;-142.75;77.80;76901.00;5033972;28;19963;-73
2021/10/22 10:48:06;;;;;;;;;;;;;;;-142.75;78.16;76902.97;5032212;28;19921;-72
2021/10/22 10:50:52;;;;;;;;;;;;;;;-142.75;75.83;76934.47;5033630;28;19917;-70
2021/10/22 10:53:28;;;;;;;;;;;;;;;-142.75;75.73;76928.56;5033657;28;19913;-68
2021/10/22 10:55:55;;;;;;;;;;;;;;;-142.75;75.57;76993.53;5031815;28;19917;-69
2021/10/22 10:58:21;;;;;;;;;;;;;;;-142.75;76.46;76969.91;5033279;28;19913;-69
2021/10/22 11:00:48;;;;;;;;;;;;;;;-142.75;75.29;76887.22;5033229;28;19912;-68
2021/10/22 11:03:17;;;;;;;;;;;;;;;-142.75;76.16;76954.16;5033583;28;19963;-68
2021/10/22 11:05:49;;;;;;;;;;;;;;;-142.75;76.88;76967.94;5033027;28;19939;-68
2021/10/22 11:08:15;;;;;;;;;;;;;;;-142.75;76.34;76969.91;5033499;28;19920;-68
2021/10/22 11:10:58;;;;;;;;;;;;;;;-142.75;77.78;77007.31;5033229;28;19913;-68
2021/10/22 11:13:23;;;;;;;;;;;;;;;-142.75;78.39;77017.16;5032932;28;19952;-68
2021/10/22 11:15:49;;;;;;;;;;;;;;;-142.75;79.88;77040.78;5033034;28;19960;-68
2021/10/22 11:18:15;;;;;;;;;;;;;;;-142.75;79.87;77042.75;5031763;28;19913;-68
2021/10/22 11:20:40;;;;;;;;;;;;;;;-142.75;81.64;77058.50;5033086;28;19917;-68
2021/10/22 11:23:10;;;;;;;;;;;;;;;-142.75;82.14;77078.19;5031948;28;19917;-68
2021/10/22 11:25:36;;;;;;;;;;;;;;;-142.75;83.96;77086.06;5032664;28;19919;-69
2021/10/22 11:28:06;;;;;;;;;;;;;;;-142.75;83.49;77068.34;5031457;28;20015;-68
2021/10/22 11:30:31;;;;;;;;;;;;;;;-142.75;85.00;77097.88;5033143;28;19913;-68
2021/10/22 11:33:00;;;;;;;;;;;;;;;-142.75;86.56;77080.16;5032973;28;19974;-68
2021/10/22 11:35:28;;;;;;;;;;;;;;;-142.75;86.14;77072.28;5032467;28;19964;-68
2021/10/22 11:38:01;;;;;;;;;;;;;;;-142.75;88.13;77109.69;5031734;28;19920;-69
2021/10/22 11:40:27;;;;;;;;;;;;;;;-142.75;92.74;77153.00;5032809;28;19924;-69
2021/10/22 11:42:52;;;;;;;;;;;;;;;-142.75;93.64;77180.56;5031265;28;19913;-68
2021/10/22 11:45:20;;;;;;;;;;;;;;;-142.75;96.05;77164.81;5032362;28;19920;-69
2021/10/22 11:47:49;;;;;;;;;;;;;;;-142.75;96.47;77162.84;5032079;28;19936;-68
2021/10/22 11:50:20;;;;;;;;;;;;;;;-142.75;99.66;77178.59;5032487;28;19913;-69
2021/10/22 11:52:49;;;;;;;;;;;;;;;-142.75;99.66;77188.44;5032605;28;19920;-68
2021/10/22 11:55:22;;;;;;;;;;;;;;;-142.75;94.57;77210.09;5032178;28;19917;-68
2021/10/22 11:57:49;;;;;;;;;;;;;;;-142.75;93.54;77223.88;5032428;28;19920;-68
2021/10/22 12:00:14;;;;;;;;;;;;;;;-142.75;92.27;77241.59;5031062;28;19917;-68
2021/10/22 12:02:40;;;;;;;;;;;;;;;-142.75;92.80;77192.38;5032311;28;19959;-68
2021/10/22 12:05:06;;;;;;;;;;;;;;;-142.75;88.88;77082.13;5030781;28;20018;-69
2021/10/22 12:07:32;;;;;;;;;;;;;;;-142.75;83.11;76973.84;5030918;28;19971;-68
2021/10/22 12:09:58;;;;;;;;;;;;;;;-142.75;75.29;76922.66;5031108;28;19936;-68
2021/10/22 12:12:23;;;;;;;;;;;;;;;-142.75;72.92;76857.69;5032043;28;20402;-69
2021/10/22 12:14:49;;;;;;;;;;;;;;;-142.75;73.74;76853.75;5031655;28;19913;-69
2021/10/22 12:17:23;;;;;;;;;;;;;;;-142.75;74.21;76938.41;5032234;28;19917;-68
2021/10/22 12:19:50;;;;;;;;;;;;;;;-142.75;75.26;76924.63;5030754;28;19987;-69
2021/10/22 12:22:20;;;;;;;;;;;;;;;-142.75;75.49;76954.16;5032038;28;19923;-69
2021/10/22 12:24:47;;;;;;;;;;;;;;;-142.75;75.24;76914.78;5030472;28;20268;-68
2021/10/22 12:27:12;;;;;;;;;;;;;;;-142.75;73.47;76839.97;5030506;28;19917;-69
2021/10/22 12:29:53;;;;;;;;;;;;;;;-142.75;71.46;76845.88;5031648;28;20350;-69